Flight Track Log - Related Links

Times and Time Zones

All times are in EDT time to prevent confusion due to time zone crossing. See the AUB2162 flight status page for this flight to view local times or setup timezone preferences in your user account.

Time Position Orientation Groundspeed Altitude Reporting Facility
EDT Latitude Longitude Course Direction KTS MPH feet Rate Location/Type
Wed 03:59:00 PM 48.6169 11.6265 338° Northwest  Level Estimated
Wed 04:00:00 PM 48.7046 11.5729 338° Northwest  Level Estimated
Wed 04:01:00 PM 48.7922 11.5191 338° Northwest  Level Estimated
Wed 04:02:00 PM 48.8798 11.4652 338° Northwest  Level Estimated
Wed 04:03:00 PM 48.9674 11.4110 338° Northwest  Level Estimated
Wed 04:04:00 PM 49.0549 11.3567 338° Northwest  Level Estimated
Wed 04:05:00 PM 49.1425 11.3022 338° Northwest  Level Estimated
Wed 04:06:00 PM 49.2300 11.2474 338° Northwest  Level Estimated
Wed 04:07:00 PM 49.3175 11.1925 338° Northwest  Level Estimated
Wed 04:08:00 PM 49.4049 11.1374 338° Northwest  Level Estimated
Wed 04:09:00 PM 49.4923 11.0821 338° Northwest  Level Estimated
Wed 04:10:00 PM 49.4986 11.0781 338° Northwest  Level Estimated
Wed 04:11:00 PM 49.4986 11.0781 327° Northwest  Level Estimated
Wed 04:12:00 PM 49.4986 11.0781 327° Northwest  Level Estimated
Wed 04:13:00 PM 49.4986 11.0781 327° Northwest  Level Estimated
Wed 04:14:00 PM 49.4986 11.0781 327° Northwest  Level Estimated
Wed 04:15:00 PM 49.4986 11.0781 327° Northwest  Level Estimated
Wed 04:16:00 PM 49.4986 11.0781 327° Northwest  Level Estimated
Wed 04:17:00 PM 49.4986 11.0781 327° Northwest  Level Estimated
Wed 04:18:00 PM 49.4986 11.0781 327° Northwest  Level Estimated
Wed 04:19:00 PM 49.4986 11.0781 327° Northwest  Level Estimated
Wed 04:20:00 PM 49.4986 11.0781 327° Northwest  Level Estimated
Wed 04:21:00 PM 49.4986 11.0781 327° Northwest  Level Estimated
Wed 04:22:00 PM 49.4986 11.0781 327° Northwest  Level Estimated
Wed 04:23:00 PM 49.4986 11.0781 327° Northwest  Level Estimated
Wed 04:24:00 PM 49.4986 11.0781 327° Northwest  Level Estimated
Wed 04:25:00 PM 49.4986 11.0781 327° Northwest  Level Estimated

Login

Don't have an account? Register now (free) for customized features, flight alerts, and more!